sensor_id;sensor_type;location;lat;lon;timestamp;P1;durP1;ratioP1;P2;durP2;ratioP2
5987;SDS011;3021;51.000;6.980;2022-12-18T00:01:03;28.55;;;12.98;;
5987;SDS011;3021;51.000;6.980;2022-12-18T00:03:33;30.98;;;12.88;;
5987;SDS011;3021;51.000;6.980;2022-12-18T00:05:59;27.02;;;12.95;;
5987;SDS011;3021;51.000;6.980;2022-12-18T00:08:24;26.08;;;12.63;;
5987;SDS011;3021;51.000;6.980;2022-12-18T00:10:50;28.58;;;13.38;;
5987;SDS011;3021;51.000;6.980;2022-12-18T00:13:15;30.70;;;13.77;;
5987;SDS011;3021;51.000;6.980;2022-12-18T00:15:41;30.33;;;13.07;;
5987;SDS011;3021;51.000;6.980;2022-12-18T00:18:06;26.67;;;13.13;;
5987;SDS011;3021;51.000;6.980;2022-12-18T00:20:35;31.67;;;14.57;;
5987;SDS011;3021;51.000;6.980;2022-12-18T00:23:01;38.55;;;14.43;;
5987;SDS011;3021;51.000;6.980;2022-12-18T00:25:26;32.08;;;14.43;;
5987;SDS011;3021;51.000;6.980;2022-12-18T00:27:52;26.45;;;13.05;;
5987;SDS011;3021;51.000;6.980;2022-12-18T00:30:17;27.48;;;13.70;;
5987;SDS011;3021;51.000;6.980;2022-12-18T00:32:42;28.80;;;13.35;;
5987;SDS011;3021;51.000;6.980;2022-12-18T00:35:08;30.05;;;12.82;;
5987;SDS011;3021;51.000;6.980;2022-12-18T00:37:33;30.42;;;13.60;;
5987;SDS011;3021;51.000;6.980;2022-12-18T00:39:59;28.17;;;13.30;;
5987;SDS011;3021;51.000;6.980;2022-12-18T00:42:24;28.77;;;13.65;;
5987;SDS011;3021;51.000;6.980;2022-12-18T00:45:08;25.65;;;12.80;;
5987;SDS011;3021;51.000;6.980;2022-12-18T00:47:34;30.50;;;12.75;;
5987;SDS011;3021;51.000;6.980;2022-12-18T00:49:59;27.77;;;12.73;;
5987;SDS011;3021;51.000;6.980;2022-12-18T00:52:24;29.13;;;13.25;;
5987;SDS011;3021;51.000;6.980;2022-12-18T00:54:50;28.45;;;14.65;;
5987;SDS011;3021;51.000;6.980;2022-12-18T00:57:15;27.10;;;13.30;;
5987;SDS011;3021;51.000;6.980;2022-12-18T00:59:40;29.10;;;13.25;;
5987;SDS011;3021;51.000;6.980;2022-12-18T01:02:06;30.95;;;12.98;;
5987;SDS011;3021;51.000;6.980;2022-12-18T01:04:31;29.80;;;14.05;;
5987;SDS011;3021;51.000;6.980;2022-12-18T01:06:58;29.08;;;13.10;;
5987;SDS011;3021;51.000;6.980;2022-12-18T01:09:23;29.13;;;13.80;;
5987;SDS011;3021;51.000;6.980;2022-12-18T01:11:49;29.83;;;13.70;;
5987;SDS011;3021;51.000;6.980;2022-12-18T01:14:14;25.27;;;12.50;;
5987;SDS011;3021;51.000;6.980;2022-12-18T01:16:39;30.83;;;12.95;;
5987;SDS011;3021;51.000;6.980;2022-12-18T01:19:05;27.67;;;12.93;;
5987;SDS011;3021;51.000;6.980;2022-12-18T01:21:30;27.50;;;12.43;;
5987;SDS011;3021;51.000;6.980;2022-12-18T01:23:56;29.10;;;12.85;;
5987;SDS011;3021;51.000;6.980;2022-12-18T01:26:21;30.73;;;13.90;;
5987;SDS011;3021;51.000;6.980;2022-12-18T01:28:47;29.52;;;12.70;;
5987;SDS011;3021;51.000;6.980;2022-12-18T01:31:23;30.10;;;12.90;;
5987;SDS011;3021;51.000;6.980;2022-12-18T01:33:51;29.20;;;12.98;;
5987;SDS011;3021;51.000;6.980;2022-12-18T01:36:27;28.95;;;13.55;;
5987;SDS011;3021;51.000;6.980;2022-12-18T01:38:55;28.42;;;13.57;;
5987;SDS011;3021;51.000;6.980;2022-12-18T01:41:25;27.13;;;13.68;;
5987;SDS011;3021;51.000;6.980;2022-12-18T01:47:15;24.52;;;12.32;;
5987;SDS011;3021;51.000;6.980;2022-12-18T01:49:50;24.88;;;12.20;;
5987;SDS011;3021;51.000;6.980;2022-12-18T01:52:15;25.75;;;12.55;;
5987;SDS011;3021;51.000;6.980;2022-12-18T01:54:42;25.27;;;12.45;;
5987;SDS011;3021;51.000;6.980;2022-12-18T01:57:09;31.50;;;13.10;;
5987;SDS011;3021;51.000;6.980;2022-12-18T01:59:34;27.45;;;12.70;;
5987;SDS011;3021;51.000;6.980;2022-12-18T02:02:01;26.20;;;13.05;;
5987;SDS011;3021;51.000;6.980;2022-12-18T02:04:27;27.40;;;12.98;;
5987;SDS011;3021;51.000;6.980;2022-12-18T02:07:05;26.25;;;11.77;;
5987;SDS011;3021;51.000;6.980;2022-12-18T02:09:35;21.38;;;11.43;;
5987;SDS011;3021;51.000;6.980;2022-12-18T02:12:19;24.92;;;12.38;;
5987;SDS011;3021;51.000;6.980;2022-12-18T02:20:33;28.42;;;12.77;;
5987;SDS011;3021;51.000;6.980;2022-12-18T02:28:50;24.65;;;11.80;;
5987;SDS011;3021;51.000;6.980;2022-12-18T02:31:28;24.75;;;12.35;;
5987;SDS011;3021;51.000;6.980;2022-12-18T02:33:59;29.63;;;12.48;;
5987;SDS011;3021;51.000;6.980;2022-12-18T02:36:27;27.75;;;12.98;;
5987;SDS011;3021;51.000;6.980;2022-12-18T02:38:54;24.90;;;11.77;;
5987;SDS011;3021;51.000;6.980;2022-12-18T02:41:21;30.92;;;11.63;;
5987;SDS011;3021;51.000;6.980;2022-12-18T02:43:48;24.50;;;12.32;;
5987;SDS011;3021;51.000;6.980;2022-12-18T02:49:36;28.02;;;11.35;;
5987;SDS011;3021;51.000;6.980;2022-12-18T02:54:55;28.15;;;11.48;;
5987;SDS011;3021;51.000;6.980;2022-12-18T02:57:34;25.63;;;12.95;;
5987;SDS011;3021;51.000;6.980;2022-12-18T03:00:12;27.13;;;13.00;;
5987;SDS011;3021;51.000;6.980;2022-12-18T03:02:47;27.85;;;12.38;;
5987;SDS011;3021;51.000;6.980;2022-12-18T03:05:23;23.40;;;11.75;;
5987;SDS011;3021;51.000;6.980;2022-12-18T03:08:05;23.10;;;11.63;;
5987;SDS011;3021;51.000;6.980;2022-12-18T03:10:43;22.65;;;11.38;;
5987;SDS011;3021;51.000;6.980;2022-12-18T03:13:23;25.25;;;11.45;;
5987;SDS011;3021;51.000;6.980;2022-12-18T03:15:56;22.38;;;10.90;;
5987;SDS011;3021;51.000;6.980;2022-12-18T03:18:29;24.75;;;11.40;;
5987;SDS011;3021;51.000;6.980;2022-12-18T03:20:55;23.65;;;11.65;;
5987;SDS011;3021;51.000;6.980;2022-12-18T03:23:27;25.33;;;11.40;;
5987;SDS011;3021;51.000;6.980;2022-12-18T03:25:58;21.73;;;10.75;;
5987;SDS011;3021;51.000;6.980;2022-12-18T03:28:26;22.80;;;10.73;;
5987;SDS011;3021;51.000;6.980;2022-12-18T03:30:58;26.08;;;11.48;;
5987;SDS011;3021;51.000;6.980;2022-12-18T03:33:31;22.63;;;10.20;;
5987;SDS011;3021;51.000;6.980;2022-12-18T03:36:03;30.45;;;12.20;;
5987;SDS011;3021;51.000;6.980;2022-12-18T03:38:28;21.77;;;10.55;;
5987;SDS011;3021;51.000;6.980;2022-12-18T03:41:07;22.42;;;11.05;;
5987;SDS011;3021;51.000;6.980;2022-12-18T03:43:42;23.35;;;11.23;;
5987;SDS011;3021;51.000;6.980;2022-12-18T03:48:46;20.60;;;10.15;;
5987;SDS011;3021;51.000;6.980;2022-12-18T03:51:18;26.92;;;11.23;;
5987;SDS011;3021;51.000;6.980;2022-12-18T03:54:01;25.80;;;12.07;;
5987;SDS011;3021;51.000;6.980;2022-12-18T03:56:34;23.50;;;12.57;;
5987;SDS011;3021;51.000;6.980;2022-12-18T03:59:05;29.10;;;13.88;;
5987;SDS011;3021;51.000;6.980;2022-12-18T04:01:33;22.08;;;11.30;;
5987;SDS011;3021;51.000;6.980;2022-12-18T04:04:02;26.25;;;11.35;;
5987;SDS011;3021;51.000;6.980;2022-12-18T04:06:29;24.80;;;10.65;;
5987;SDS011;3021;51.000;6.980;2022-12-18T04:08:56;29.08;;;11.40;;
5987;SDS011;3021;51.000;6.980;2022-12-18T04:11:23;22.85;;;10.48;;
5987;SDS011;3021;51.000;6.980;2022-12-18T04:13:49;21.98;;;11.02;;
5987;SDS011;3021;51.000;6.980;2022-12-18T04:16:14;20.40;;;9.93;;
5987;SDS011;3021;51.000;6.980;2022-12-18T04:18:39;22.65;;;10.88;;
5987;SDS011;3021;51.000;6.980;2022-12-18T04:21:04;20.15;;;10.30;;
5987;SDS011;3021;51.000;6.980;2022-12-18T04:23:30;22.25;;;10.82;;
5987;SDS011;3021;51.000;6.980;2022-12-18T04:25:55;24.48;;;10.95;;
5987;SDS011;3021;51.000;6.980;2022-12-18T04:28:20;20.02;;;10.50;;
5987;SDS011;3021;51.000;6.980;2022-12-18T04:30:46;23.65;;;10.77;;
5987;SDS011;3021;51.000;6.980;2022-12-18T04:33:17;24.33;;;11.57;;
5987;SDS011;3021;51.000;6.980;2022-12-18T04:35:42;18.65;;;10.15;;
5987;SDS011;3021;51.000;6.980;2022-12-18T04:38:08;20.48;;;9.90;;
5987;SDS011;3021;51.000;6.980;2022-12-18T04:40:35;21.85;;;10.65;;
5987;SDS011;3021;51.000;6.980;2022-12-18T04:43:01;22.27;;;9.85;;
5987;SDS011;3021;51.000;6.980;2022-12-18T04:45:26;23.33;;;10.82;;
5987;SDS011;3021;51.000;6.980;2022-12-18T04:47:52;23.75;;;10.82;;
5987;SDS011;3021;51.000;6.980;2022-12-18T04:50:17;23.60;;;11.02;;
5987;SDS011;3021;51.000;6.980;2022-12-18T04:52:42;22.02;;;11.00;;
5987;SDS011;3021;51.000;6.980;2022-12-18T04:55:08;18.42;;;10.05;;
5987;SDS011;3021;51.000;6.980;2022-12-18T04:57:33;23.15;;;10.50;;
5987;SDS011;3021;51.000;6.980;2022-12-18T04:59:59;21.70;;;10.40;;
5987;SDS011;3021;51.000;6.980;2022-12-18T05:02:24;28.13;;;11.73;;
5987;SDS011;3021;51.000;6.980;2022-12-18T05:04:49;27.10;;;10.68;;
5987;SDS011;3021;51.000;6.980;2022-12-18T05:07:15;20.42;;;11.10;;
5987;SDS011;3021;51.000;6.980;2022-12-18T05:09:40;22.35;;;10.98;;
5987;SDS011;3021;51.000;6.980;2022-12-18T05:12:05;20.30;;;10.27;;
5987;SDS011;3021;51.000;6.980;2022-12-18T05:14:31;22.00;;;10.45;;
5987;SDS011;3021;51.000;6.980;2022-12-18T05:16:56;22.45;;;11.10;;
5987;SDS011;3021;51.000;6.980;2022-12-18T05:19:21;20.25;;;10.35;;
5987;SDS011;3021;51.000;6.980;2022-12-18T05:21:47;21.65;;;10.63;;
5987;SDS011;3021;51.000;6.980;2022-12-18T05:24:12;21.30;;;10.13;;
5987;SDS011;3021;51.000;6.980;2022-12-18T05:26:37;24.58;;;11.32;;
5987;SDS011;3021;51.000;6.980;2022-12-18T05:29:03;21.60;;;10.32;;
5987;SDS011;3021;51.000;6.980;2022-12-18T05:31:28;24.25;;;11.02;;
5987;SDS011;3021;51.000;6.980;2022-12-18T05:33:53;24.27;;;11.27;;
5987;SDS011;3021;51.000;6.980;2022-12-18T05:36:19;23.23;;;10.75;;
5987;SDS011;3021;51.000;6.980;2022-12-18T05:38:44;21.60;;;10.70;;
5987;SDS011;3021;51.000;6.980;2022-12-18T05:41:09;21.17;;;10.57;;
5987;SDS011;3021;51.000;6.980;2022-12-18T05:43:35;23.45;;;10.65;;
5987;SDS011;3021;51.000;6.980;2022-12-18T05:46:06;22.83;;;10.55;;
5987;SDS011;3021;51.000;6.980;2022-12-18T05:48:32;22.83;;;11.63;;
5987;SDS011;3021;51.000;6.980;2022-12-18T05:51:03;23.25;;;10.50;;
5987;SDS011;3021;51.000;6.980;2022-12-18T05:53:30;22.35;;;10.35;;
5987;SDS011;3021;51.000;6.980;2022-12-18T05:55:59;23.35;;;11.25;;
5987;SDS011;3021;51.000;6.980;2022-12-18T05:58:29;21.30;;;10.30;;
5987;SDS011;3021;51.000;6.980;2022-12-18T06:00:54;24.88;;;11.02;;
5987;SDS011;3021;51.000;6.980;2022-12-18T06:03:20;21.52;;;10.65;;
5987;SDS011;3021;51.000;6.980;2022-12-18T06:05:45;22.40;;;11.70;;
5987;SDS011;3021;51.000;6.980;2022-12-18T06:08:11;26.60;;;11.80;;
5987;SDS011;3021;51.000;6.980;2022-12-18T06:10:37;21.13;;;11.00;;
5987;SDS011;3021;51.000;6.980;2022-12-18T06:13:03;23.85;;;11.48;;
5987;SDS011;3021;51.000;6.980;2022-12-18T06:15:29;24.67;;;11.48;;
5987;SDS011;3021;51.000;6.980;2022-12-18T06:17:55;25.02;;;11.55;;
5987;SDS011;3021;51.000;6.980;2022-12-18T06:20:20;23.83;;;11.35;;
5987;SDS011;3021;51.000;6.980;2022-12-18T06:22:46;22.80;;;10.77;;
5987;SDS011;3021;51.000;6.980;2022-12-18T06:25:11;23.25;;;11.68;;
5987;SDS011;3021;51.000;6.980;2022-12-18T06:27:37;25.85;;;12.73;;
5987;SDS011;3021;51.000;6.980;2022-12-18T06:30:02;27.55;;;12.35;;
5987;SDS011;3021;51.000;6.980;2022-12-18T06:32:28;24.88;;;12.07;;
5987;SDS011;3021;51.000;6.980;2022-12-18T06:34:54;21.08;;;10.98;;
5987;SDS011;3021;51.000;6.980;2022-12-18T06:37:20;22.77;;;10.90;;
5987;SDS011;3021;51.000;6.980;2022-12-18T06:39:45;21.00;;;10.45;;
5987;SDS011;3021;51.000;6.980;2022-12-18T06:42:11;22.25;;;10.95;;
5987;SDS011;3021;51.000;6.980;2022-12-18T06:44:36;23.52;;;11.65;;
5987;SDS011;3021;51.000;6.980;2022-12-18T06:47:02;29.42;;;13.23;;
5987;SDS011;3021;51.000;6.980;2022-12-18T06:49:27;32.25;;;13.68;;
5987;SDS011;3021;51.000;6.980;2022-12-18T06:51:53;30.02;;;14.13;;
5987;SDS011;3021;51.000;6.980;2022-12-18T06:54:18;29.38;;;13.05;;
5987;SDS011;3021;51.000;6.980;2022-12-18T06:56:44;24.17;;;12.30;;
5987;SDS011;3021;51.000;6.980;2022-12-18T06:59:10;27.80;;;12.85;;
5987;SDS011;3021;51.000;6.980;2022-12-18T07:01:37;30.15;;;14.48;;
5987;SDS011;3021;51.000;6.980;2022-12-18T07:04:02;29.52;;;13.98;;
5987;SDS011;3021;51.000;6.980;2022-12-18T07:06:28;31.67;;;13.02;;
5987;SDS011;3021;51.000;6.980;2022-12-18T07:08:53;23.88;;;12.73;;
5987;SDS011;3021;51.000;6.980;2022-12-18T07:11:20;27.50;;;13.35;;
5987;SDS011;3021;51.000;6.980;2022-12-18T07:13:45;24.85;;;12.80;;
5987;SDS011;3021;51.000;6.980;2022-12-18T07:16:12;25.52;;;13.57;;
5987;SDS011;3021;51.000;6.980;2022-12-18T07:18:42;28.85;;;13.23;;
5987;SDS011;3021;51.000;6.980;2022-12-18T07:21:08;24.70;;;13.00;;
5987;SDS011;3021;51.000;6.980;2022-12-18T07:23:35;26.73;;;13.02;;
5987;SDS011;3021;51.000;6.980;2022-12-18T07:26:04;30.95;;;13.60;;
5987;SDS011;3021;51.000;6.980;2022-12-18T07:28:33;32.00;;;13.35;;
5987;SDS011;3021;51.000;6.980;2022-12-18T07:31:09;26.77;;;13.63;;
5987;SDS011;3021;51.000;6.980;2022-12-18T07:33:36;24.95;;;13.18;;
5987;SDS011;3021;51.000;6.980;2022-12-18T07:36:02;25.48;;;12.73;;
5987;SDS011;3021;51.000;6.980;2022-12-18T07:38:29;25.95;;;12.35;;
5987;SDS011;3021;51.000;6.980;2022-12-18T07:40:59;29.45;;;14.15;;
5987;SDS011;3021;51.000;6.980;2022-12-18T07:43:25;30.35;;;13.35;;
5987;SDS011;3021;51.000;6.980;2022-12-18T07:45:53;27.30;;;13.63;;
5987;SDS011;3021;51.000;6.980;2022-12-18T07:48:18;30.38;;;14.65;;
5987;SDS011;3021;51.000;6.980;2022-12-18T07:50:44;30.40;;;12.95;;
5987;SDS011;3021;51.000;6.980;2022-12-18T07:53:09;28.80;;;12.85;;
5987;SDS011;3021;51.000;6.980;2022-12-18T07:55:34;30.08;;;13.65;;
5987;SDS011;3021;51.000;6.980;2022-12-18T07:58:01;29.75;;;12.57;;
5987;SDS011;3021;51.000;6.980;2022-12-18T08:00:27;24.60;;;12.43;;
5987;SDS011;3021;51.000;6.980;2022-12-18T08:02:52;28.02;;;13.23;;
5987;SDS011;3021;51.000;6.980;2022-12-18T08:05:18;29.05;;;12.98;;
5987;SDS011;3021;51.000;6.980;2022-12-18T08:07:43;25.25;;;11.77;;
5987;SDS011;3021;51.000;6.980;2022-12-18T08:10:09;30.38;;;13.80;;
5987;SDS011;3021;51.000;6.980;2022-12-18T08:12:34;27.85;;;13.32;;
5987;SDS011;3021;51.000;6.980;2022-12-18T08:14:59;27.85;;;12.32;;
5987;SDS011;3021;51.000;6.980;2022-12-18T08:17:25;26.17;;;12.07;;
5987;SDS011;3021;51.000;6.980;2022-12-18T08:19:50;31.63;;;13.95;;
5987;SDS011;3021;51.000;6.980;2022-12-18T08:22:16;26.73;;;12.38;;
5987;SDS011;3021;51.000;6.980;2022-12-18T08:24:41;23.08;;;12.07;;
5987;SDS011;3021;51.000;6.980;2022-12-18T08:27:06;25.92;;;12.32;;
5987;SDS011;3021;51.000;6.980;2022-12-18T08:29:32;27.20;;;13.27;;
5987;SDS011;3021;51.000;6.980;2022-12-18T08:31:57;29.30;;;13.32;;
5987;SDS011;3021;51.000;6.980;2022-12-18T08:34:22;24.92;;;12.07;;
5987;SDS011;3021;51.000;6.980;2022-12-18T08:36:48;28.83;;;12.52;;
5987;SDS011;3021;51.000;6.980;2022-12-18T08:39:13;25.45;;;12.80;;
5987;SDS011;3021;51.000;6.980;2022-12-18T08:41:39;24.63;;;12.50;;
5987;SDS011;3021;51.000;6.980;2022-12-18T08:44:04;26.38;;;12.45;;
5987;SDS011;3021;51.000;6.980;2022-12-18T08:46:48;28.65;;;13.13;;
5987;SDS011;3021;51.000;6.980;2022-12-18T08:49:13;29.90;;;13.57;;
5987;SDS011;3021;51.000;6.980;2022-12-18T08:51:39;24.63;;;12.52;;
5987;SDS011;3021;51.000;6.980;2022-12-18T08:54:05;25.63;;;13.20;;
5987;SDS011;3021;51.000;6.980;2022-12-18T08:56:31;27.42;;;12.60;;
5987;SDS011;3021;51.000;6.980;2022-12-18T08:58:56;27.23;;;12.48;;
5987;SDS011;3021;51.000;6.980;2022-12-18T09:01:22;22.67;;;11.48;;
5987;SDS011;3021;51.000;6.980;2022-12-18T09:03:48;26.35;;;12.27;;
5987;SDS011;3021;51.000;6.980;2022-12-18T09:06:15;24.50;;;12.00;;
5987;SDS011;3021;51.000;6.980;2022-12-18T09:08:42;24.98;;;11.95;;
5987;SDS011;3021;51.000;6.980;2022-12-18T09:11:15;23.25;;;11.48;;
5987;SDS011;3021;51.000;6.980;2022-12-18T09:13:45;22.13;;;11.48;;
5987;SDS011;3021;51.000;6.980;2022-12-18T09:16:10;26.67;;;11.70;;
5987;SDS011;3021;51.000;6.980;2022-12-18T09:18:36;22.52;;;11.30;;
5987;SDS011;3021;51.000;6.980;2022-12-18T09:21:07;25.77;;;12.38;;
5987;SDS011;3021;51.000;6.980;2022-12-18T09:23:34;21.38;;;11.15;;
5987;SDS011;3021;51.000;6.980;2022-12-18T09:25:59;24.75;;;12.32;;
5987;SDS011;3021;51.000;6.980;2022-12-18T09:28:24;23.45;;;11.93;;
5987;SDS011;3021;51.000;6.980;2022-12-18T09:30:50;24.30;;;11.77;;
5987;SDS011;3021;51.000;6.980;2022-12-18T09:33:16;21.17;;;10.82;;
5987;SDS011;3021;51.000;6.980;2022-12-18T09:35:42;20.20;;;10.75;;
5987;SDS011;3021;51.000;6.980;2022-12-18T09:38:13;21.38;;;11.35;;
5987;SDS011;3021;51.000;6.980;2022-12-18T09:40:44;22.13;;;10.85;;
5987;SDS011;3021;51.000;6.980;2022-12-18T09:43:19;20.55;;;10.90;;
5987;SDS011;3021;51.000;6.980;2022-12-18T09:45:53;21.42;;;10.63;;
5987;SDS011;3021;51.000;6.980;2022-12-18T09:48:28;19.85;;;10.93;;
5987;SDS011;3021;51.000;6.980;2022-12-18T09:51:12;24.15;;;11.88;;
5987;SDS011;3021;51.000;6.980;2022-12-18T09:53:44;25.05;;;12.30;;
5987;SDS011;3021;51.000;6.980;2022-12-18T09:56:16;24.60;;;11.23;;
5987;SDS011;3021;51.000;6.980;2022-12-18T09:59:03;25.88;;;11.82;;
5987;SDS011;3021;51.000;6.980;2022-12-18T10:01:29;20.45;;;11.52;;
5987;SDS011;3021;51.000;6.980;2022-12-18T10:03:56;24.05;;;11.50;;
5987;SDS011;3021;51.000;6.980;2022-12-18T10:12:09;23.40;;;12.15;;
5987;SDS011;3021;51.000;6.980;2022-12-18T10:25:40;21.48;;;11.45;;
5987;SDS011;3021;51.000;6.980;2022-12-18T10:28:14;26.35;;;12.32;;
5987;SDS011;3021;51.000;6.980;2022-12-18T10:30:42;24.60;;;11.77;;
5987;SDS011;3021;51.000;6.980;2022-12-18T10:33:19;21.58;;;11.35;;
5987;SDS011;3021;51.000;6.980;2022-12-18T10:35:47;19.88;;;11.20;;
5987;SDS011;3021;51.000;6.980;2022-12-18T10:43:27;21.67;;;10.98;;
5987;SDS011;3021;51.000;6.980;2022-12-18T10:46:35;24.45;;;11.50;;
5987;SDS011;3021;51.000;6.980;2022-12-18T10:51:46;22.13;;;11.65;;
5987;SDS011;3021;51.000;6.980;2022-12-18T10:56:49;26.55;;;12.20;;
5987;SDS011;3021;51.000;6.980;2022-12-18T10:59:15;24.35;;;11.82;;
5987;SDS011;3021;51.000;6.980;2022-12-18T11:01:49;24.88;;;11.68;;
5987;SDS011;3021;51.000;6.980;2022-12-18T11:04:16;23.88;;;11.50;;
5987;SDS011;3021;51.000;6.980;2022-12-18T11:06:54;23.27;;;12.90;;
5987;SDS011;3021;51.000;6.980;2022-12-18T11:09:21;23.80;;;12.48;;
5987;SDS011;3021;51.000;6.980;2022-12-18T11:11:49;24.55;;;11.73;;
5987;SDS011;3021;51.000;6.980;2022-12-18T11:14:20;25.88;;;12.40;;
5987;SDS011;3021;51.000;6.980;2022-12-18T11:16:48;24.90;;;12.65;;
5987;SDS011;3021;51.000;6.980;2022-12-18T11:22:01;25.30;;;12.20;;
5987;SDS011;3021;51.000;6.980;2022-12-18T11:24:32;24.65;;;11.80;;
5987;SDS011;3021;51.000;6.980;2022-12-18T11:27:04;24.02;;;12.23;;
5987;SDS011;3021;51.000;6.980;2022-12-18T11:29:32;29.00;;;13.02;;
5987;SDS011;3021;51.000;6.980;2022-12-18T11:32:13;24.52;;;12.90;;
5987;SDS011;3021;51.000;6.980;2022-12-18T11:37:12;23.15;;;12.30;;
5987;SDS011;3021;51.000;6.980;2022-12-18T11:39:52;27.17;;;12.82;;
5987;SDS011;3021;51.000;6.980;2022-12-18T11:42:25;23.77;;;11.65;;
5987;SDS011;3021;51.000;6.980;2022-12-18T11:45:03;26.38;;;12.80;;
5987;SDS011;3021;51.000;6.980;2022-12-18T11:50:14;25.38;;;12.52;;
5987;SDS011;3021;51.000;6.980;2022-12-18T11:52:43;26.55;;;13.55;;
5987;SDS011;3021;51.000;6.980;2022-12-18T11:55:12;26.42;;;13.73;;
5987;SDS011;3021;51.000;6.980;2022-12-18T12:00:56;26.33;;;13.50;;
5987;SDS011;3021;51.000;6.980;2022-12-18T12:03:39;30.45;;;13.98;;
5987;SDS011;3021;51.000;6.980;2022-12-18T12:25:39;28.77;;;13.10;;
5987;SDS011;3021;51.000;6.980;2022-12-18T12:30:58;27.73;;;14.40;;
5987;SDS011;3021;51.000;6.980;2022-12-18T12:39:09;34.40;;;15.07;;
5987;SDS011;3021;51.000;6.980;2022-12-18T12:41:39;32.85;;;15.30;;
5987;SDS011;3021;51.000;6.980;2022-12-18T12:44:27;33.80;;;16.08;;
5987;SDS011;3021;51.000;6.980;2022-12-18T12:47:00;29.42;;;15.25;;
5987;SDS011;3021;51.000;6.980;2022-12-18T12:49:31;31.35;;;15.20;;
5987;SDS011;3021;51.000;6.980;2022-12-18T12:52:10;29.58;;;15.45;;
5987;SDS011;3021;51.000;6.980;2022-12-18T12:54:40;34.40;;;17.58;;
5987;SDS011;3021;51.000;6.980;2022-12-18T13:00:07;31.40;;;15.75;;
5987;SDS011;3021;51.000;6.980;2022-12-18T13:02:39;34.05;;;15.70;;
5987;SDS011;3021;51.000;6.980;2022-12-18T13:05:23;26.88;;;14.30;;
5987;SDS011;3021;51.000;6.980;2022-12-18T13:10:26;34.55;;;15.18;;
5987;SDS011;3021;51.000;6.980;2022-12-18T13:12:56;34.55;;;16.20;;
5987;SDS011;3021;51.000;6.980;2022-12-18T13:18:20;35.20;;;15.57;;
5987;SDS011;3021;51.000;6.980;2022-12-18T13:21:12;33.28;;;15.80;;
5987;SDS011;3021;51.000;6.980;2022-12-18T13:23:43;29.90;;;14.88;;
5987;SDS011;3021;51.000;6.980;2022-12-18T13:36:15;35.95;;;16.98;;
5987;SDS011;3021;51.000;6.980;2022-12-18T13:39:34;35.40;;;18.10;;
5987;SDS011;3021;51.000;6.980;2022-12-18T13:46:58;34.38;;;16.63;;
5987;SDS011;3021;51.000;6.980;2022-12-18T13:51:55;37.63;;;18.10;;
5987;SDS011;3021;51.000;6.980;2022-12-18T13:54:33;45.35;;;19.30;;
5987;SDS011;3021;51.000;6.980;2022-12-18T13:56:59;34.38;;;16.67;;
5987;SDS011;3021;51.000;6.980;2022-12-18T13:59:25;36.47;;;17.02;;
5987;SDS011;3021;51.000;6.980;2022-12-18T14:01:59;35.33;;;16.27;;
5987;SDS011;3021;51.000;6.980;2022-12-18T14:04:28;43.22;;;19.23;;
5987;SDS011;3021;51.000;6.980;2022-12-18T14:06:56;38.45;;;17.95;;
5987;SDS011;3021;51.000;6.980;2022-12-18T14:09:27;33.88;;;15.95;;
5987;SDS011;3021;51.000;6.980;2022-12-18T14:11:55;44.15;;;19.33;;
5987;SDS011;3021;51.000;6.980;2022-12-18T14:14:45;36.80;;;18.20;;
5987;SDS011;3021;51.000;6.980;2022-12-18T14:17:13;41.03;;;18.67;;
5987;SDS011;3021;51.000;6.980;2022-12-18T14:19:43;42.80;;;19.02;;
5987;SDS011;3021;51.000;6.980;2022-12-18T14:27:43;37.55;;;18.75;;
5987;SDS011;3021;51.000;6.980;2022-12-18T14:30:23;35.15;;;17.10;;
5987;SDS011;3021;51.000;6.980;2022-12-18T14:35:27;36.97;;;18.23;;
5987;SDS011;3021;51.000;6.980;2022-12-18T14:37:53;38.75;;;18.25;;
5987;SDS011;3021;51.000;6.980;2022-12-18T14:40:18;37.38;;;18.95;;
5987;SDS011;3021;51.000;6.980;2022-12-18T14:42:44;39.67;;;17.85;;
5987;SDS011;3021;51.000;6.980;2022-12-18T14:48:06;40.35;;;17.98;;
5987;SDS011;3021;51.000;6.980;2022-12-18T14:56:26;46.70;;;19.23;;
5987;SDS011;3021;51.000;6.980;2022-12-18T14:59:00;40.28;;;18.73;;
5987;SDS011;3021;51.000;6.980;2022-12-18T15:01:32;43.15;;;19.08;;
5987;SDS011;3021;51.000;6.980;2022-12-18T15:03:59;46.28;;;19.55;;
5987;SDS011;3021;51.000;6.980;2022-12-18T15:06:28;38.97;;;17.83;;
5987;SDS011;3021;51.000;6.980;2022-12-18T15:09:02;39.13;;;17.23;;
5987;SDS011;3021;51.000;6.980;2022-12-18T15:12:03;44.30;;;19.90;;
5987;SDS011;3021;51.000;6.980;2022-12-18T15:14:23;36.15;;;16.83;;
5987;SDS011;3021;51.000;6.980;2022-12-18T15:16:55;45.25;;;20.40;;
5987;SDS011;3021;51.000;6.980;2022-12-18T15:19:22;36.10;;;18.27;;
5987;SDS011;3021;51.000;6.980;2022-12-18T15:21:57;44.28;;;19.73;;
5987;SDS011;3021;51.000;6.980;2022-12-18T15:24:24;45.58;;;19.50;;
5987;SDS011;3021;51.000;6.980;2022-12-18T15:26:54;47.50;;;19.85;;
5987;SDS011;3021;51.000;6.980;2022-12-18T15:29:20;42.22;;;19.90;;
5987;SDS011;3021;51.000;6.980;2022-12-18T15:31:57;43.65;;;18.48;;
5987;SDS011;3021;51.000;6.980;2022-12-18T15:34:23;40.38;;;19.90;;
5987;SDS011;3021;51.000;6.980;2022-12-18T15:36:50;42.25;;;18.95;;
5987;SDS011;3021;51.000;6.980;2022-12-18T15:39:16;43.28;;;19.80;;
5987;SDS011;3021;51.000;6.980;2022-12-18T15:41:41;45.78;;;21.17;;
5987;SDS011;3021;51.000;6.980;2022-12-18T15:44:27;44.63;;;20.23;;
5987;SDS011;3021;51.000;6.980;2022-12-18T15:46:52;44.95;;;21.98;;
5987;SDS011;3021;51.000;6.980;2022-12-18T15:49:17;40.30;;;20.08;;
5987;SDS011;3021;51.000;6.980;2022-12-18T15:51:43;40.03;;;19.17;;
5987;SDS011;3021;51.000;6.980;2022-12-18T15:54:09;41.13;;;19.95;;
5987;SDS011;3021;51.000;6.980;2022-12-18T15:56:38;47.45;;;20.52;;
5987;SDS011;3021;51.000;6.980;2022-12-18T15:59:22;46.10;;;20.48;;
5987;SDS011;3021;51.000;6.980;2022-12-18T16:01:48;47.05;;;19.98;;
5987;SDS011;3021;51.000;6.980;2022-12-18T16:04:18;46.97;;;22.58;;
5987;SDS011;3021;51.000;6.980;2022-12-18T16:06:45;46.05;;;21.80;;
5987;SDS011;3021;51.000;6.980;2022-12-18T16:09:11;43.47;;;20.48;;
5987;SDS011;3021;51.000;6.980;2022-12-18T16:11:36;47.80;;;22.60;;
5987;SDS011;3021;51.000;6.980;2022-12-18T16:16:47;47.90;;;22.98;;
5987;SDS011;3021;51.000;6.980;2022-12-18T16:19:14;48.40;;;23.23;;
5987;SDS011;3021;51.000;6.980;2022-12-18T16:21:41;47.72;;;21.48;;
5987;SDS011;3021;51.000;6.980;2022-12-18T16:24:13;50.13;;;23.40;;
5987;SDS011;3021;51.000;6.980;2022-12-18T16:26:50;47.50;;;22.92;;
5987;SDS011;3021;51.000;6.980;2022-12-18T16:29:16;51.22;;;23.27;;
5987;SDS011;3021;51.000;6.980;2022-12-18T16:31:42;49.33;;;23.38;;
5987;SDS011;3021;51.000;6.980;2022-12-18T16:36:51;47.22;;;22.25;;
5987;SDS011;3021;51.000;6.980;2022-12-18T16:39:18;45.78;;;21.52;;
5987;SDS011;3021;51.000;6.980;2022-12-18T16:41:43;48.17;;;22.92;;
5987;SDS011;3021;51.000;6.980;2022-12-18T16:44:09;51.83;;;24.27;;
5987;SDS011;3021;51.000;6.980;2022-12-18T16:46:35;54.53;;;25.00;;
5987;SDS011;3021;51.000;6.980;2022-12-18T16:49:01;47.85;;;22.77;;
5987;SDS011;3021;51.000;6.980;2022-12-18T16:51:27;55.47;;;24.40;;
5987;SDS011;3021;51.000;6.980;2022-12-18T16:53:55;54.47;;;24.75;;
5987;SDS011;3021;51.000;6.980;2022-12-18T16:56:22;50.92;;;24.00;;
5987;SDS011;3021;51.000;6.980;2022-12-18T16:58:51;53.78;;;25.25;;
5987;SDS011;3021;51.000;6.980;2022-12-18T17:01:18;58.20;;;25.85;;
5987;SDS011;3021;51.000;6.980;2022-12-18T17:03:50;49.80;;;22.25;;
5987;SDS011;3021;51.000;6.980;2022-12-18T17:06:17;53.67;;;25.55;;
5987;SDS011;3021;51.000;6.980;2022-12-18T17:08:43;56.85;;;25.73;;
5987;SDS011;3021;51.000;6.980;2022-12-18T17:11:08;56.90;;;27.02;;
5987;SDS011;3021;51.000;6.980;2022-12-18T17:13:33;54.60;;;25.15;;
5987;SDS011;3021;51.000;6.980;2022-12-18T17:16:05;54.38;;;25.25;;